<?xml version="1.0" encoding="UTF-8" ?>
<gpx version="1.1" xmlns:xsi="http://www.w3.org/2001/XMLSchema-instance" 
    xmlns="http://www.topografix.com/GPX/1/1" 
    xsi:schemaLocation="http://www.topografix.com/GPX/1/1 http://www.topografix.com/GPX/1/1/gpx.xsd" 
    creator="Openrunner - https://www.openrunner.com" >	<trk>
						<name>13994067-trace du bois de veyeiere et bouvet</name>
						<trkseg>
					<trkpt lat="45.080550" lon="2.748430">
						<ele>1244</ele>
						<time>2021-12-07T08:32:04Z</time>
					</trkpt>
					<trkpt lat="45.079970" lon="2.747480">
						<ele>1250</ele>
						<time>2021-12-07T08:33:15Z</time>
					</trkpt>
					<trkpt lat="45.079470" lon="2.746850">
						<ele>1264</ele>
						<time>2021-12-07T08:34:09Z</time>
					</trkpt>
					<trkpt lat="45.079120" lon="2.746590">
						<ele>1274</ele>
						<time>2021-12-07T08:34:40Z</time>
					</trkpt>
					<trkpt lat="45.078870" lon="2.745880">
						<ele>1277</ele>
						<time>2021-12-07T08:35:25Z</time>
					</trkpt>
					<trkpt lat="45.078510" lon="2.745340">
						<ele>1286</ele>
						<time>2021-12-07T08:36:07Z</time>
					</trkpt>
					<trkpt lat="45.078200" lon="2.744750">
						<ele>1295</ele>
						<time>2021-12-07T08:36:49Z</time>
					</trkpt>
					<trkpt lat="45.077970" lon="2.744170">
						<ele>1299</ele>
						<time>2021-12-07T08:37:26Z</time>
					</trkpt>
					<trkpt lat="45.077610" lon="2.743680">
						<ele>1303</ele>
						<time>2021-12-07T08:38:06Z</time>
					</trkpt>
					<trkpt lat="45.077110" lon="2.743530">
						<ele>1317</ele>
						<time>2021-12-07T08:38:47Z</time>
					</trkpt>
					<trkpt lat="45.076730" lon="2.743610">
						<ele>1332</ele>
						<time>2021-12-07T08:39:18Z</time>
					</trkpt>
					<trkpt lat="45.076370" lon="2.743780">
						<ele>1348</ele>
						<time>2021-12-07T08:39:48Z</time>
					</trkpt>
					<trkpt lat="45.075980" lon="2.743970">
						<ele>1364</ele>
						<time>2021-12-07T08:40:21Z</time>
					</trkpt>
					<trkpt lat="45.075690" lon="2.744230">
						<ele>1375</ele>
						<time>2021-12-07T08:40:49Z</time>
					</trkpt>
					<trkpt lat="45.075370" lon="2.744550">
						<ele>1387</ele>
						<time>2021-12-07T08:41:20Z</time>
					</trkpt>
					<trkpt lat="45.075050" lon="2.744790">
						<ele>1398</ele>
						<time>2021-12-07T08:41:49Z</time>
					</trkpt>
					<trkpt lat="45.074790" lon="2.744980">
						<ele>1405</ele>
						<time>2021-12-07T08:42:13Z</time>
					</trkpt>
					<trkpt lat="45.074600" lon="2.745160">
						<ele>1408</ele>
						<time>2021-12-07T08:42:31Z</time>
					</trkpt>
					<trkpt lat="45.074510" lon="2.745460">
						<ele>1408</ele>
						<time>2021-12-07T08:42:49Z</time>
					</trkpt>
					<trkpt lat="45.074050" lon="2.745820">
						<ele>1416</ele>
						<time>2021-12-07T08:43:31Z</time>
					</trkpt>
					<trkpt lat="45.073760" lon="2.746020">
						<ele>1420</ele>
						<time>2021-12-07T08:43:57Z</time>
					</trkpt>
					<trkpt lat="45.073560" lon="2.745940">
						<ele>1426</ele>
						<time>2021-12-07T08:44:14Z</time>
					</trkpt>
					<trkpt lat="45.073320" lon="2.745820">
						<ele>1433</ele>
						<time>2021-12-07T08:44:34Z</time>
					</trkpt>
					<trkpt lat="45.073130" lon="2.745690">
						<ele>1435</ele>
						<time>2021-12-07T08:44:51Z</time>
					</trkpt>
					<trkpt lat="45.072950" lon="2.745550">
						<ele>1436</ele>
						<time>2021-12-07T08:45:08Z</time>
					</trkpt>
					<trkpt lat="45.072650" lon="2.745510">
						<ele>1437</ele>
						<time>2021-12-07T08:45:32Z</time>
					</trkpt>
					<trkpt lat="45.072330" lon="2.745600">
						<ele>1438</ele>
						<time>2021-12-07T08:45:58Z</time>
					</trkpt>
					<trkpt lat="45.072170" lon="2.746080">
						<ele>1443</ele>
						<time>2021-12-07T08:46:28Z</time>
					</trkpt>
					<trkpt lat="45.071990" lon="2.746740">
						<ele>1450</ele>
						<time>2021-12-07T08:47:08Z</time>
					</trkpt>
					<trkpt lat="45.071930" lon="2.747410">
						<ele>1449</ele>
						<time>2021-12-07T08:47:46Z</time>
					</trkpt>
					<trkpt lat="45.071900" lon="2.747840">
						<ele>1448</ele>
						<time>2021-12-07T08:48:10Z</time>
					</trkpt>
					<trkpt lat="45.071830" lon="2.748510">
						<ele>1447</ele>
						<time>2021-12-07T08:48:49Z</time>
					</trkpt>
					<trkpt lat="45.071770" lon="2.748940">
						<ele>1448</ele>
						<time>2021-12-07T08:49:14Z</time>
					</trkpt>
					<trkpt lat="45.071570" lon="2.749370">
						<ele>1447</ele>
						<time>2021-12-07T08:49:43Z</time>
					</trkpt>
					<trkpt lat="45.071430" lon="2.749930">
						<ele>1443</ele>
						<time>2021-12-07T08:50:16Z</time>
					</trkpt>
					<trkpt lat="45.071280" lon="2.750430">
						<ele>1437</ele>
						<time>2021-12-07T08:50:47Z</time>
					</trkpt>
					<trkpt lat="45.071140" lon="2.750710">
						<ele>1435</ele>
						<time>2021-12-07T08:51:06Z</time>
					</trkpt>
					<trkpt lat="45.070870" lon="2.751100">
						<ele>1436</ele>
						<time>2021-12-07T08:51:37Z</time>
					</trkpt>
					<trkpt lat="45.070750" lon="2.751490">
						<ele>1438</ele>
						<time>2021-12-07T08:52:01Z</time>
					</trkpt>
					<trkpt lat="45.070580" lon="2.751850">
						<ele>1440</ele>
						<time>2021-12-07T08:52:26Z</time>
					</trkpt>
					<trkpt lat="45.070310" lon="2.752340">
						<ele>1444</ele>
						<time>2021-12-07T08:53:01Z</time>
					</trkpt>
					<trkpt lat="45.070050" lon="2.752750">
						<ele>1446</ele>
						<time>2021-12-07T08:53:32Z</time>
					</trkpt>
					<trkpt lat="45.069470" lon="2.753390">
						<ele>1454</ele>
						<time>2021-12-07T08:54:31Z</time>
					</trkpt>
					<trkpt lat="45.069170" lon="2.753600">
						<ele>1461</ele>
						<time>2021-12-07T08:54:58Z</time>
					</trkpt>
					<trkpt lat="45.068780" lon="2.754270">
						<ele>1476</ele>
						<time>2021-12-07T08:55:47Z</time>
					</trkpt>
					<trkpt lat="45.068520" lon="2.754770">
						<ele>1485</ele>
						<time>2021-12-07T08:56:22Z</time>
					</trkpt>
					<trkpt lat="45.068220" lon="2.755240">
						<ele>1497</ele>
						<time>2021-12-07T08:56:58Z</time>
					</trkpt>
					<trkpt lat="45.068070" lon="2.755600">
						<ele>1506</ele>
						<time>2021-12-07T08:57:21Z</time>
					</trkpt>
					<trkpt lat="45.067990" lon="2.755970">
						<ele>1513</ele>
						<time>2021-12-07T08:57:43Z</time>
					</trkpt>
					<trkpt lat="45.068190" lon="2.756310">
						<ele>1516</ele>
						<time>2021-12-07T08:58:08Z</time>
					</trkpt>
					<trkpt lat="45.068400" lon="2.756480">
						<ele>1519</ele>
						<time>2021-12-07T08:58:28Z</time>
					</trkpt>
					<trkpt lat="45.067970" lon="2.756890">
						<ele>1532</ele>
						<time>2021-12-07T08:59:09Z</time>
					</trkpt>
					<trkpt lat="45.067160" lon="2.757730">
						<ele>1559</ele>
						<time>2021-12-07T09:00:30Z</time>
					</trkpt>
					<trkpt lat="45.066840" lon="2.758070">
						<ele>1570</ele>
						<time>2021-12-07T09:01:02Z</time>
					</trkpt>
					<trkpt lat="45.066630" lon="2.758290">
						<ele>1577</ele>
						<time>2021-12-07T09:01:23Z</time>
					</trkpt>
					<trkpt lat="45.066350" lon="2.758780">
						<ele>1600</ele>
						<time>2021-12-07T09:01:58Z</time>
					</trkpt>
					<trkpt lat="45.066260" lon="2.759080">
						<ele>1610</ele>
						<time>2021-12-07T09:02:17Z</time>
					</trkpt>
					<trkpt lat="45.066400" lon="2.759750">
						<ele>1626</ele>
						<time>2021-12-07T09:02:56Z</time>
					</trkpt>
					<trkpt lat="45.066460" lon="2.760150">
						<ele>1638</ele>
						<time>2021-12-07T09:03:19Z</time>
					</trkpt>
					<trkpt lat="45.066600" lon="2.760480">
						<ele>1646</ele>
						<time>2021-12-07T09:03:41Z</time>
					</trkpt>
					<trkpt lat="45.066730" lon="2.760880">
						<ele>1658</ele>
						<time>2021-12-07T09:04:06Z</time>
					</trkpt>
					<trkpt lat="45.066670" lon="2.761180">
						<ele>1671</ele>
						<time>2021-12-07T09:04:24Z</time>
					</trkpt>
					<trkpt lat="45.066280" lon="2.760950">
						<ele>1675</ele>
						<time>2021-12-07T09:04:57Z</time>
					</trkpt>
					<trkpt lat="45.065970" lon="2.760780">
						<ele>1679</ele>
						<time>2021-12-07T09:05:24Z</time>
					</trkpt>
					<trkpt lat="45.065630" lon="2.760750">
						<ele>1692</ele>
						<time>2021-12-07T09:05:51Z</time>
					</trkpt>
					<trkpt lat="45.065280" lon="2.760710">
						<ele>1706</ele>
						<time>2021-12-07T09:06:19Z</time>
					</trkpt>
					<trkpt lat="45.065700" lon="2.761250">
						<ele>1709</ele>
						<time>2021-12-07T09:07:05Z</time>
					</trkpt>
					<trkpt lat="45.065960" lon="2.761550">
						<ele>1711</ele>
						<time>2021-12-07T09:07:32Z</time>
					</trkpt>
					<trkpt lat="45.066140" lon="2.761960">
						<ele>1721</ele>
						<time>2021-12-07T09:07:59Z</time>
					</trkpt>
					<trkpt lat="45.066340" lon="2.762730">
						<ele>1739</ele>
						<time>2021-12-07T09:08:45Z</time>
					</trkpt>
					<trkpt lat="45.066320" lon="2.762270">
						<ele>1726</ele>
						<time>2021-12-07T09:09:11Z</time>
					</trkpt>
					<trkpt lat="45.066690" lon="2.762640">
						<ele>1725</ele>
						<time>2021-12-07T09:09:48Z</time>
					</trkpt>
					<trkpt lat="45.066670" lon="2.762880">
						<ele>1732</ele>
						<time>2021-12-07T09:10:01Z</time>
					</trkpt>
					<trkpt lat="45.066430" lon="2.762920">
						<ele>1741</ele>
						<time>2021-12-07T09:10:21Z</time>
					</trkpt>
					<trkpt lat="45.066000" lon="2.762600">
						<ele>1748</ele>
						<time>2021-12-07T09:11:00Z</time>
					</trkpt>
					<trkpt lat="45.065700" lon="2.762510">
						<ele>1754</ele>
						<time>2021-12-07T09:11:24Z</time>
					</trkpt>
					<trkpt lat="45.065290" lon="2.762510">
						<ele>1764</ele>
						<time>2021-12-07T09:11:57Z</time>
					</trkpt>
					<trkpt lat="45.065590" lon="2.763160">
						<ele>1766</ele>
						<time>2021-12-07T09:12:41Z</time>
					</trkpt>
					<trkpt lat="45.065000" lon="2.762840">
						<ele>1771</ele>
						<time>2021-12-07T09:13:32Z</time>
					</trkpt>
					<trkpt lat="45.064690" lon="2.762640">
						<ele>1772</ele>
						<time>2021-12-07T09:13:59Z</time>
					</trkpt>
					<trkpt lat="45.064410" lon="2.762450">
						<ele>1774</ele>
						<time>2021-12-07T09:14:24Z</time>
					</trkpt>
					<trkpt lat="45.063870" lon="2.762100">
						<ele>1780</ele>
						<time>2021-12-07T09:15:11Z</time>
					</trkpt>
					<trkpt lat="45.063560" lon="2.761630">
						<ele>1787</ele>
						<time>2021-12-07T09:15:48Z</time>
					</trkpt>
					<trkpt lat="45.063260" lon="2.761130">
						<ele>1794</ele>
						<time>2021-12-07T09:16:25Z</time>
					</trkpt>
					<trkpt lat="45.062950" lon="2.760700">
						<ele>1796</ele>
						<time>2021-12-07T09:16:59Z</time>
					</trkpt>
					<trkpt lat="45.062490" lon="2.760370">
						<ele>1795</ele>
						<time>2021-12-07T09:17:41Z</time>
					</trkpt>
					<trkpt lat="45.061900" lon="2.760410">
						<ele>1792</ele>
						<time>2021-12-07T09:18:28Z</time>
					</trkpt>
					<trkpt lat="45.061220" lon="2.760700">
						<ele>1799</ele>
						<time>2021-12-07T09:19:25Z</time>
					</trkpt>
					<trkpt lat="45.060710" lon="2.760910">
						<ele>1805</ele>
						<time>2021-12-07T09:20:07Z</time>
					</trkpt>
					<trkpt lat="45.060250" lon="2.761060">
						<ele>1810</ele>
						<time>2021-12-07T09:20:45Z</time>
					</trkpt>
					<trkpt lat="45.059920" lon="2.760980">
						<ele>1812</ele>
						<time>2021-12-07T09:21:12Z</time>
					</trkpt>
					<trkpt lat="45.059860" lon="2.761100">
						<ele>1814</ele>
						<time>2021-12-07T09:21:20Z</time>
					</trkpt>
					</trkseg>
				</trk>
			</gpx>